Time;durP1;ratioP1;P1;durP2;ratioP2;P2;SDS_P1;SDS_P2;PMS_P1;PMS_P2;Temp;Humidity;BMP_temperature;BMP_pressure;BME280_temperature;BME280_humidity;BME280_pressure;Samples;Min_cycle;Max_cycle;Signal;HPM_P1;HPM_P2
2022/09/16 00:00:48;;;;;;;9.20;2.75;;;;;;;28.51;42.06;99235.53;5051670;28;20203;-74
2022/09/16 00:03:17;;;;;;;5.07;2.90;;;;;;;28.52;41.86;99220.41;5051389;28;20211;-74
2022/09/16 00:05:45;;;;;;;7.38;2.50;;;;;;;28.57;41.59;99234.28;5051504;28;20207;-74
2022/09/16 00:08:13;;;;;;;7.78;2.22;;;;;;;28.62;41.27;99232.09;5050542;28;20227;-75
2022/09/16 00:10:40;;;;;;;4.18;2.17;;;;;;;28.65;40.97;99239.88;5051418;28;20241;-74
2022/09/16 00:13:08;;;;;;;9.00;2.83;;;;;;;28.80;40.41;99249.47;5051384;28;20214;-74
2022/09/16 00:15:35;;;;;;;5.35;2.28;;;;;;;28.89;39.82;99235.47;5051239;28;20203;-74
2022/09/16 00:18:01;;;;;;;4.93;2.20;;;;;;;29.00;39.54;99230.16;5051390;28;20207;-74
2022/09/16 00:20:28;;;;;;;13.50;2.90;;;;;;;28.94;39.40;99227.97;5051315;28;20207;-74
2022/09/16 00:22:55;;;;;;;8.45;2.53;;;;;;;29.08;39.21;99239.44;5051068;28;20214;-74
2022/09/16 00:25:22;;;;;;;4.07;1.55;;;;;;;28.98;39.50;99223.25;5051274;28;20199;-74
2022/09/16 00:27:49;;;;;;;12.68;2.67;;;;;;;29.11;39.48;99242.72;5051097;28;20231;-75
2022/09/16 00:30:17;;;;;;;9.95;2.53;;;;;;;29.11;39.57;99250.72;5050444;28;20679;-74
2022/09/16 00:32:44;;;;;;;2.20;1.70;;;;;;;29.05;39.89;99245.84;5050811;28;20325;-75
2022/09/16 00:35:11;;;;;;;4.80;2.58;;;;;;;29.09;39.53;99238.47;5050538;28;20246;-74
2022/09/16 00:37:38;;;;;;;9.90;2.50;;;;;;;29.14;39.44;99245.19;5050479;28;20219;-74
2022/09/16 00:40:06;;;;;;;8.65;2.42;;;;;;;28.78;39.82;99190.03;5050682;28;20203;-74
2022/09/16 00:42:37;;;;;;;6.38;2.00;;;;;;;29.11;39.74;99236.56;5050986;28;20238;-74
2022/09/16 00:45:06;;;;;;;17.35;2.85;;;;;;;29.07;39.90;99237.75;5051034;28;20231;-74
2022/09/16 00:47:39;;;;;;;7.40;2.42;;;;;;;29.15;39.91;99235.34;5050585;28;20230;-74
2022/09/16 00:50:10;;;;;;;10.20;2.85;;;;;;;29.01;40.04;99236.38;5032088;28;20196;-75
2022/09/16 00:52:38;;;;;;;5.43;2.15;;;;;;;28.71;40.68;99236.81;5050744;28;20207;-74
2022/09/16 00:55:09;;;;;;;9.15;2.38;;;;;;;28.83;40.53;99251.91;5050909;28;20207;-74
2022/09/16 00:57:37;;;;;;;7.18;2.30;;;;;;;28.42;40.74;99192.69;5050764;28;20207;-74
2022/09/16 01:00:07;;;;;;;8.48;3.00;;;;;;;28.64;40.78;99248.88;5032055;28;20199;-74
2022/09/16 01:02:35;;;;;;;7.05;2.80;;;;;;;28.57;40.96;99236.94;5050183;28;20230;-74
2022/09/16 01:05:06;;;;;;;6.00;2.20;;;;;;;28.59;40.92;99243.00;5050730;28;20562;-75
2022/09/16 01:07:38;;;;;;;7.00;2.22;;;;;;;28.62;40.81;99237.44;5050786;28;20231;-74
2022/09/16 01:10:06;;;;;;;8.10;2.50;;;;;;;28.52;40.77;99247.94;5050824;28;20261;-74
2022/09/16 01:12:35;;;;;;;4.75;2.10;;;;;;;28.58;40.88;99246.63;5050573;28;20200;-74
2022/09/16 01:15:05;;;;;;;13.52;3.05;;;;;;;28.60;40.62;99255.38;5050759;28;20237;-74
2022/09/16 01:17:50;;;;;;;3.70;2.35;;;;;;;28.63;40.42;99251.63;5050554;28;20206;-75
2022/09/16 01:21:02;;;;;;;6.30;2.50;;;;;;;28.65;40.47;99261.22;5053898;28;20195;-74
2022/09/16 01:24:17;;;;;;;15.80;2.80;;;;;;;28.69;40.46;99259.22;4984401;28;20216;-74
2022/09/16 01:27:07;;;;;;;7.53;2.35;;;;;;;28.57;40.81;99269.78;4964130;28;20209;-74
2022/09/16 01:30:00;;;;;;;6.13;2.03;;;;;;;28.53;40.58;99276.31;4973288;28;20750;-74
2022/09/16 01:32:33;;;;;;;10.25;1.98;;;;;;;28.54;40.80;99279.81;4915929;29;20231;-74
2022/09/16 01:35:08;;;;;;;4.97;2.05;;;;;;;28.52;40.78;99263.06;4893373;29;20201;-74
2022/09/16 01:37:46;;;;;;;8.38;2.58;;;;;;;28.62;40.50;99288.13;4896469;29;20228;-74
2022/09/16 01:40:18;;;;;;;8.32;2.65;;;;;;;28.56;40.75;99285.91;4888023;29;20327;-74
2022/09/16 01:42:55;;;;;;;9.38;2.92;;;;;;;28.58;40.72;99284.81;4890588;29;20217;-74
2022/09/16 01:45:31;;;;;;;10.38;2.55;;;;;;;28.57;40.60;99276.94;4878280;29;20311;-74
2022/09/16 01:48:08;;;;;;;10.05;2.60;;;;;;;28.54;40.73;99287.81;4896257;29;20633;-74
2022/09/16 01:50:41;;;;;;;6.97;2.30;;;;;;;28.45;40.98;99285.81;4889780;29;20722;-75
2022/09/16 01:53:14;;;;;;;6.18;1.90;;;;;;;28.40;41.00;99295.94;4878039;29;20220;-74
2022/09/16 01:55:48;;;;;;;13.43;3.30;;;;;;;28.35;41.20;99295.44;4877663;29;20233;-74
2022/09/16 01:58:22;;;;;;;8.45;2.70;;;;;;;28.30;41.29;99302.88;4910101;29;20701;-74
2022/09/16 02:00:53;;;;;;;8.20;2.30;;;;;;;28.11;41.61;99289.97;4966590;28;20686;-74
2022/09/16 02:03:25;;;;;;;7.55;2.20;;;;;;;28.14;41.61;99305.78;4991983;28;20205;-74
2022/09/16 02:05:56;;;;;;;11.77;2.83;;;;;;;28.10;41.83;99300.78;4991637;28;20201;-74
2022/09/16 02:08:32;;;;;;;3.65;1.30;;;;;;;28.13;41.61;99292.56;4992049;28;20225;-74
2022/09/16 02:11:02;;;;;;;8.98;2.20;;;;;;;28.24;41.27;99293.53;5053297;28;20206;-74
2022/09/16 02:13:33;;;;;;;11.25;2.42;;;;;;;28.21;41.34;99301.75;5053277;28;20649;-75
2022/09/16 02:16:04;;;;;;;11.60;2.47;;;;;;;28.22;40.95;99297.25;5053638;28;20733;-75
2022/09/16 02:18:38;;;;;;;8.30;2.50;;;;;;;28.34;40.95;99299.06;4986635;28;20694;-74
2022/09/16 02:21:10;;;;;;;12.82;3.17;;;;;;;28.28;41.02;99296.81;5019281;28;20195;-75
2022/09/16 02:23:41;;;;;;;8.52;3.08;;;;;;;28.37;40.79;99306.84;5053385;28;20204;-74
2022/09/16 02:26:13;;;;;;;12.88;2.90;;;;;;;28.42;40.74;99315.38;5053636;28;20199;-75
2022/09/16 02:28:44;;;;;;;9.40;2.63;;;;;;;28.51;40.69;99306.72;5053239;28;20648;-74
2022/09/16 02:31:13;;;;;;;8.15;2.80;;;;;;;28.38;40.62;99304.06;5050251;28;20214;-74
2022/09/16 02:33:46;;;;;;;9.60;2.75;;;;;;;28.45;40.77;99321.34;5052821;28;20218;-74
2022/09/16 02:36:17;;;;;;;9.02;2.40;;;;;;;28.39;40.75;99320.94;5053151;28;20641;-74
2022/09/16 02:38:48;;;;;;;10.38;2.75;;;;;;;28.15;41.36;99296.81;5067923;28;20200;-74
2022/09/16 02:41:15;;;;;;;5.30;2.40;;;;;;;28.20;41.58;99318.69;5053366;28;20204;-75
2022/09/16 02:43:42;;;;;;;13.20;3.22;;;;;;;28.18;41.62;99314.44;5053147;28;20199;-74
2022/09/16 02:46:15;;;;;;;9.05;2.55;;;;;;;28.07;41.72;99316.00;5052888;28;20586;-74
2022/09/16 02:48:56;;;;;;;8.70;2.53;;;;;;;27.98;41.76;99324.59;5052751;28;20262;-75
2022/09/16 02:51:33;;;;;;;5.43;2.42;;;;;;;28.04;41.71;99320.66;5053153;28;20203;-74
2022/09/16 02:54:06;;;;;;;8.85;2.90;;;;;;;27.94;42.76;99314.25;5052921;28;20847;-74
2022/09/16 02:56:35;;;;;;;13.55;3.20;;;;;;;27.57;43.60;99310.56;5052899;28;20199;-74
2022/09/16 02:59:05;;;;;;;8.18;2.28;;;;;;;27.37;44.13;99308.34;5052720;28;20199;-75
2022/09/16 03:01:36;;;;;;;8.13;2.53;;;;;;;27.25;44.17;99311.81;5051052;28;20223;-74
2022/09/16 03:04:05;;;;;;;8.25;2.50;;;;;;;27.37;43.76;99309.19;5034059;28;20215;-75
2022/09/16 03:06:34;;;;;;;10.43;2.40;;;;;;;27.32;43.95;99300.66;5052776;28;20203;-75
2022/09/16 03:09:04;;;;;;;11.05;2.47;;;;;;;27.37;44.06;99297.69;5032705;28;20223;-74
2022/09/16 03:12:02;;;;;;;10.00;2.65;;;;;;;27.51;43.25;99295.84;5032437;28;20197;-79
2022/09/16 03:14:51;;;;;;;11.20;2.20;;;;;;;27.39;43.20;99282.47;4996313;28;20556;-74
2022/09/16 03:17:34;;;;;;;14.30;3.22;;;;;;;27.44;43.24;99309.63;5002113;28;20287;-75
2022/09/16 03:20:10;;;;;;;11.00;2.67;;;;;;;27.41;43.56;99320.50;5009906;28;20240;-74
2022/09/16 03:22:50;;;;;;;10.98;2.53;;;;;;;27.33;43.57;99325.47;5010261;28;20247;-74
2022/09/16 03:25:29;;;;;;;10.48;2.88;;;;;;;27.36;44.32;99315.47;5009699;28;20262;-74
2022/09/16 03:28:02;;;;;;;12.18;2.65;;;;;;;27.34;44.56;99308.53;4975526;28;20492;-74
2022/09/16 03:30:36;;;;;;;8.90;2.53;;;;;;;27.28;44.34;99300.97;5009546;28;20203;-74
2022/09/16 03:33:10;;;;;;;8.48;2.22;;;;;;;27.21;44.56;99315.63;5009898;28;20201;-74
2022/09/16 03:35:44;;;;;;;10.00;2.55;;;;;;;26.94;44.61;99275.69;5009520;28;20197;-74
2022/09/16 03:38:13;;;;;;;12.68;3.15;;;;;;;26.96;44.75;99281.78;5009428;28;20243;-74
2022/09/16 03:40:42;;;;;;;14.00;3.13;;;;;;;27.07;44.90;99314.72;5009998;28;20197;-74
2022/09/16 03:43:14;;;;;;;11.77;2.90;;;;;;;26.87;44.88;99277.88;5009943;28;20193;-75
2022/09/16 03:45:42;;;;;;;11.30;2.80;;;;;;;26.88;44.90;99295.56;5009604;28;20229;-78
2022/09/16 03:48:10;;;;;;;11.48;2.92;;;;;;;26.93;44.95;99301.44;5009934;28;20232;-75
2022/09/16 03:50:38;;;;;;;15.10;3.85;;;;;;;27.01;44.78;99301.81;5024918;28;20610;-75
2022/09/16 03:53:05;;;;;;;8.40;2.80;;;;;;;26.93;44.88;99304.09;5049539;28;20203;-76
2022/09/16 03:55:32;;;;;;;10.20;2.90;;;;;;;27.00;44.59;99302.75;5051607;28;20273;-75
2022/09/16 03:57:59;;;;;;;8.75;2.35;;;;;;;27.02;45.10;99303.53;5051594;28;20207;-75
2022/09/16 04:00:27;;;;;;;10.15;2.90;;;;;;;27.06;44.37;99305.03;5051610;28;20222;-75
2022/09/16 04:02:54;;;;;;;12.13;3.08;;;;;;;27.04;44.49;99317.56;5051755;28;20195;-75
2022/09/16 04:05:21;;;;;;;10.85;3.10;;;;;;;27.00;44.81;99289.44;5051579;28;20923;-75
2022/09/16 04:07:50;;;;;;;14.20;3.13;;;;;;;27.31;44.51;99314.06;5051461;28;20203;-75
2022/09/16 04:10:17;;;;;;;11.95;2.40;;;;;;;27.05;44.16;99295.31;5051607;28;20230;-75
2022/09/16 04:12:44;;;;;;;8.40;2.35;;;;;;;27.27;44.27;99316.06;5051358;28;20264;-75
2022/09/16 04:15:11;;;;;;;10.38;2.70;;;;;;;27.33;44.22;99317.47;5051377;28;20195;-74
2022/09/16 04:17:38;;;;;;;13.20;2.53;;;;;;;27.43;44.25;99319.44;5051410;28;20294;-75
2022/09/16 04:20:07;;;;;;;4.72;2.22;;;;;;;27.51;44.11;99332.28;5051252;28;20211;-75
2022/09/16 04:22:34;;;;;;;12.93;2.72;;;;;;;27.62;43.86;99328.88;5051236;28;20235;-74
2022/09/16 04:25:03;;;;;;;8.90;2.78;;;;;;;27.76;43.52;99335.00;5051307;28;20211;-75
2022/09/16 04:27:30;;;;;;;21.08;3.13;;;;;;;27.79;43.51;99332.13;5051253;28;20299;-75
2022/09/16 04:29:57;;;;;;;8.98;2.72;;;;;;;27.94;43.24;99339.09;5051332;28;20231;-75
2022/09/16 04:32:24;;;;;;;8.15;2.58;;;;;;;27.98;43.09;99345.94;5032494;28;20196;-75
2022/09/16 04:34:51;;;;;;;8.50;2.97;;;;;;;28.07;42.85;99344.50;5051514;28;20219;-75
2022/09/16 04:37:18;;;;;;;15.82;3.33;;;;;;;28.21;42.82;99343.53;5054033;28;20195;-74
2022/09/16 04:39:45;;;;;;;9.65;2.88;;;;;;;28.27;42.97;99337.78;5065610;28;20198;-76
2022/09/16 04:42:14;;;;;;;17.55;3.30;;;;;;;28.47;42.56;99366.56;5070820;28;20607;-75
2022/09/16 04:44:40;;;;;;;14.85;2.47;;;;;;;28.50;42.54;99371.72;5057910;28;20206;-75
2022/09/16 04:47:07;;;;;;;12.60;3.25;;;;;;;28.65;42.66;99362.59;5055736;28;20196;-75
2022/09/16 04:49:34;;;;;;;12.60;3.35;;;;;;;28.68;42.39;99356.25;5052596;28;20242;-75
2022/09/16 04:52:01;;;;;;;9.30;2.97;;;;;;;28.32;42.86;99333.00;5055546;28;20216;-76
2022/09/16 04:54:28;;;;;;;21.50;7.80;;;;;;;28.22;43.26;99361.25;5058705;28;20210;-79
2022/09/16 04:56:54;;;;;;;10.63;3.63;;;;;;;28.35;43.35;99362.09;5046968;28;20198;-71
2022/09/16 04:59:23;;;;;;;13.50;3.38;;;;;;;28.15;43.88;99360.78;5057613;28;20201;-75
2022/09/16 05:01:49;;;;;;;20.92;3.30;;;;;;;27.91;44.56;99371.28;5056916;28;20210;-74
2022/09/16 05:04:16;;;;;;;15.70;3.53;;;;;;;27.94;44.71;99372.88;5067205;28;20206;-75
2022/09/16 05:06:43;;;;;;;6.93;2.50;;;;;;;27.99;44.73;99368.09;5066128;28;20202;-75
2022/09/16 05:09:12;;;;;;;15.38;2.90;;;;;;;27.89;44.31;99343.03;5070164;28;20261;-75
2022/09/16 05:11:41;;;;;;;11.85;2.83;;;;;;;28.02;44.46;99366.09;5070435;28;20737;-74
2022/09/16 05:14:10;;;;;;;16.50;3.20;;;;;;;28.12;44.47;99373.47;5066291;28;20207;-75
2022/09/16 05:16:38;;;;;;;14.30;2.80;;;;;;;28.14;44.50;99368.91;5048221;28;20192;-75
2022/09/16 05:19:05;;;;;;;21.45;6.50;;;;;;;28.13;44.74;99372.53;5050759;28;20207;-78
2022/09/16 05:21:35;;;;;;;46.15;19.83;;;;;;;28.35;44.63;99372.78;5070513;28;20206;-77
2022/09/16 05:24:03;;;;;;;17.77;3.35;;;;;;;28.30;44.73;99375.75;5064981;28;20214;-77
2022/09/16 05:26:34;;;;;;;19.98;3.65;;;;;;;28.32;44.56;99378.31;5070231;28;20206;-77
2022/09/16 05:29:01;;;;;;;7.63;2.80;;;;;;;28.21;44.65;99380.88;5070506;28;20313;-77
2022/09/16 05:31:30;;;;;;;19.30;4.22;;;;;;;28.30;44.78;99370.41;5038872;28;20558;-77
2022/09/16 05:34:00;;;;;;;15.60;3.53;;;;;;;28.50;44.67;99382.38;5052713;28;20294;-77
2022/09/16 05:36:28;;;;;;;10.75;3.10;;;;;;;28.32;45.19;99368.50;5070464;28;20290;-77
2022/09/16 05:38:55;;;;;;;12.52;3.20;;;;;;;28.37;45.57;99393.03;5070695;28;20195;-77
2022/09/16 05:41:22;;;;;;;14.48;2.88;;;;;;;28.04;46.22;99374.81;5070769;28;20576;-76
2022/09/16 05:43:49;;;;;;;13.50;3.08;;;;;;;28.11;46.33;99396.63;5070285;28;20195;-76
2022/09/16 05:46:19;;;;;;;16.17;3.05;;;;;;;27.85;46.57;99379.69;5070760;28;20233;-78
2022/09/16 05:48:46;;;;;;;10.50;3.10;;;;;;;27.80;47.03;99403.13;5070208;28;20230;-78
2022/09/16 05:51:17;;;;;;;14.10;3.45;;;;;;;27.51;47.82;99385.53;5035231;28;20203;-77
2022/09/16 05:53:46;;;;;;;17.05;3.30;;;;;;;27.81;47.91;99402.19;5070226;28;20195;-77
2022/09/16 05:56:14;;;;;;;16.38;3.35;;;;;;;27.89;47.90;99409.66;5070483;28;20199;-78
2022/09/16 05:58:41;;;;;;;11.85;3.20;;;;;;;27.86;48.21;99408.03;5070219;28;20205;-78
2022/09/16 06:01:11;;;;;;;16.45;3.40;;;;;;;27.93;48.48;99404.00;5070303;28;20195;-78
2022/09/16 06:03:39;;;;;;;12.05;3.50;;;;;;;27.96;48.82;99408.31;5070182;28;20206;-78
2022/09/16 06:06:11;;;;;;;9.63;2.63;;;;;;;28.03;48.74;99399.78;5036368;28;20214;-77
2022/09/16 06:08:40;;;;;;;15.23;4.10;;;;;;;28.26;48.65;99413.38;5073596;28;20199;-78
2022/09/16 06:11:09;;;;;;;7.80;2.58;;;;;;;27.97;49.55;99421.50;5073850;28;20205;-77
2022/09/16 06:13:36;;;;;;;11.98;3.25;;;;;;;28.07;49.77;99429.81;5073853;28;20210;-77
2022/09/16 06:16:04;;;;;;;10.07;2.65;;;;;;;27.99;50.75;99416.94;5055006;28;20237;-78
2022/09/16 06:18:32;;;;;;;14.85;3.60;;;;;;;27.90;51.10;99420.22;5073686;28;20205;-77
2022/09/16 06:21:03;;;;;;;12.30;2.63;;;;;;;27.91;51.70;99421.94;5073776;28;20231;-77
2022/09/16 06:23:30;;;;;;;11.50;3.30;;;;;;;27.78;52.75;99429.03;5073158;28;20203;-76
2022/09/16 06:26:02;;;;;;;10.25;3.10;;;;;;;27.86;52.94;99424.03;5073320;28;20213;-76
2022/09/16 06:28:29;;;;;;;12.23;3.05;;;;;;;27.75;53.54;99431.91;5054477;28;20222;-76
2022/09/16 06:31:04;;;;;;;9.82;2.80;;;;;;;27.82;53.43;99430.53;5073087;28;20222;-76
2022/09/16 06:33:31;;;;;;;6.50;2.80;;;;;;;27.46;54.68;99408.97;5073046;28;20203;-76
2022/09/16 06:36:02;;;;;;;10.52;2.92;;;;;;;27.44;55.65;99418.81;5073008;28;20195;-76
2022/09/16 06:38:28;;;;;;;9.80;2.97;;;;;;;27.25;56.71;99410.31;5073153;28;20206;-76
2022/09/16 06:40:59;;;;;;;9.80;2.67;;;;;;;27.21;57.45;99419.44;5037786;28;20230;-76
2022/09/16 06:43:27;;;;;;;6.55;2.63;;;;;;;27.40;57.45;99427.94;5073357;28;20300;-76
2022/09/16 06:45:58;;;;;;;11.70;3.05;;;;;;;27.26;57.98;99402.22;5073083;28;20296;-76
2022/09/16 06:48:26;;;;;;;5.80;3.40;;;;;;;27.47;57.40;99421.31;5073085;28;20202;-76
2022/09/16 06:50:58;;;;;;;10.05;2.70;;;;;;;27.37;57.43;99401.53;5072695;28;20795;-76
2022/09/16 06:53:25;;;;;;;11.70;2.60;;;;;;;27.36;57.61;99413.16;5072495;28;20214;-76
2022/09/16 06:55:52;;;;;;;6.13;2.58;;;;;;;27.20;58.63;99396.44;5072416;28;20237;-76
2022/09/16 06:58:19;;;;;;;5.78;2.35;;;;;;;27.31;58.55;99412.59;5072652;28;20252;-76
2022/09/16 07:00:47;;;;;;;10.85;3.00;;;;;;;27.39;58.58;99396.97;5072111;28;20207;-76
2022/09/16 07:03:14;;;;;;;14.88;2.88;;;;;;;27.48;58.11;99415.91;5072703;28;20207;-76
2022/09/16 07:05:41;;;;;;;6.82;2.88;;;;;;;27.37;58.02;99410.38;5072556;28;20202;-76
2022/09/16 07:08:07;;;;;;;11.15;2.47;;;;;;;27.46;58.23;99419.63;5072604;28;20629;-76
2022/09/16 07:10:34;;;;;;;10.38;2.60;;;;;;;27.51;57.92;99434.34;5072662;28;20228;-77
2022/09/16 07:13:01;;;;;;;8.55;2.88;;;;;;;27.43;57.92;99435.78;5072429;28;20207;-76
2022/09/16 07:15:28;;;;;;;7.68;2.25;;;;;;;27.45;58.13;99434.75;5072361;28;20203;-76
2022/09/16 07:17:56;;;;;;;4.93;2.10;;;;;;;27.40;58.13;99426.16;5071924;28;20202;-76
2022/09/16 07:20:23;;;;;;;7.43;1.80;;;;;;;27.27;57.89;99440.34;5071877;28;20207;-77
2022/09/16 07:22:52;;;;;;;5.70;2.53;;;;;;;27.44;58.38;99440.97;5071978;28;20199;-76
2022/09/16 07:25:19;;;;;;;4.88;2.22;;;;;;;27.60;57.56;99448.88;5072093;28;20206;-76
2022/09/16 07:27:46;;;;;;;10.13;1.90;;;;;;;27.67;57.86;99439.53;5072222;28;20194;-76
2022/09/16 07:30:13;;;;;;;13.55;2.60;;;;;;;28.02;57.25;99448.72;5072229;28;20227;-77
2022/09/16 07:32:40;;;;;;;3.50;2.20;;;;;;;27.88;56.14;99400.81;5072101;28;20202;-76
2022/09/16 07:35:09;;;;;;;5.70;1.70;;;;;;;28.17;55.74;99422.03;5072544;28;20202;-76
2022/09/16 07:37:35;;;;;;;4.93;1.92;;;;;;;28.35;54.40;99453.63;5072330;28;20191;-76
2022/09/16 07:40:03;;;;;;;6.07;2.55;;;;;;;27.99;54.50;99381.44;5072092;28;20195;-77
2022/09/16 07:42:30;;;;;;;10.25;2.17;;;;;;;28.41;54.61;99455.88;5072024;28;20198;-77
2022/09/16 07:44:57;;;;;;;5.20;1.98;;;;;;;28.32;54.51;99447.66;5071847;28;20312;-77
2022/09/16 07:47:23;;;;;;;4.47;1.73;;;;;;;28.55;54.37;99444.25;5068986;28;20202;-78
2022/09/16 07:49:54;;;;;;;7.85;2.50;;;;;;;28.68;53.30;99444.31;5071683;28;20223;-77
2022/09/16 07:52:24;;;;;;;5.07;1.90;;;;;;;28.60;52.80;99428.81;5070716;28;20210;-77
2022/09/16 07:54:51;;;;;;;4.82;1.92;;;;;;;28.67;52.55;99447.91;5071261;28;20234;-76
2022/09/16 07:57:18;;;;;;;11.50;2.20;;;;;;;28.92;52.12;99454.13;5071721;28;20206;-77
2022/09/16 07:59:45;;;;;;;12.77;2.10;;;;;;;28.95;52.06;99453.91;5071658;28;20214;-77
2022/09/16 08:02:12;;;;;;;4.38;1.80;;;;;;;29.10;52.37;99451.97;5071588;28;20218;-77
2022/09/16 08:04:38;;;;;;;6.32;2.13;;;;;;;29.10;51.58;99461.78;5071336;28;20634;-77
2022/09/16 08:07:05;;;;;;;3.22;1.60;;;;;;;29.07;51.34;99460.22;5071507;28;20202;-77
2022/09/16 08:09:34;;;;;;;5.40;1.90;;;;;;;29.03;51.33;99459.56;5071452;28;20295;-78
2022/09/16 08:12:03;;;;;;;3.00;1.40;;;;;;;29.03;51.45;99435.53;5071285;28;20208;-76
2022/09/16 08:14:31;;;;;;;6.43;1.98;;;;;;;29.25;50.17;99450.84;5071023;28;20260;-76
2022/09/16 08:16:59;;;;;;;5.63;1.98;;;;;;;29.39;50.07;99450.78;5070916;28;20214;-77
2022/09/16 08:19:26;;;;;;;5.30;1.80;;;;;;;29.47;49.58;99450.19;5071481;28;20209;-77
2022/09/16 08:21:53;;;;;;;4.50;1.80;;;;;;;29.61;48.90;99433.19;5071072;28;20210;-76
2022/09/16 08:24:20;;;;;;;7.03;2.05;;;;;;;29.88;48.81;99461.41;5071261;28;20206;-77
2022/09/16 08:26:48;;;;;;;9.75;2.00;;;;;;;30.02;48.26;99463.91;5052590;28;20214;-76
2022/09/16 08:29:15;;;;;;;7.28;2.10;;;;;;;29.70;47.97;99446.72;5070333;28;20739;-76
2022/09/16 08:31:41;;;;;;;3.00;1.65;;;;;;;29.38;48.21;99453.56;5070985;28;20578;-76
2022/09/16 08:34:08;;;;;;;6.32;1.75;;;;;;;29.45;48.70;99462.81;5070814;28;20597;-75
2022/09/16 08:36:35;;;;;;;2.08;1.63;;;;;;;29.46;48.72;99468.06;5070983;28;20910;-75
2022/09/16 08:39:02;;;;;;;7.97;1.65;;;;;;;29.11;48.93;99399.44;5071006;28;20201;-74
2022/09/16 08:41:45;;;;;;;3.53;2.00;;;;;;;29.68;48.79;99447.81;5070817;28;20210;-75
2022/09/16 08:44:29;;;;;;;9.82;2.25;;;;;;;29.96;49.18;99453.69;5070780;28;20268;-75
2022/09/16 08:46:59;;;;;;;4.38;2.38;;;;;;;29.93;49.27;99439.69;5070571;28;20209;-75
2022/09/16 08:49:32;;;;;;;3.60;2.42;;;;;;;30.05;48.15;99440.56;5070829;28;20209;-75
2022/09/16 08:52:02;;;;;;;5.40;1.70;;;;;;;30.00;48.71;99433.75;5070662;28;20206;-75
2022/09/16 08:54:35;;;;;;;6.93;2.08;;;;;;;29.93;48.09;99416.47;5070670;28;20195;-75
2022/09/16 08:57:05;;;;;;;3.65;1.73;;;;;;;29.98;48.12;99425.00;5070622;28;20209;-74
2022/09/16 08:59:39;;;;;;;5.63;1.60;;;;;;;30.06;46.89;99416.41;5070722;28;20205;-75
2022/09/16 09:02:38;;;;;;;2.85;1.73;;;;;;;30.41;47.44;99416.38;5070437;28;20198;-75
2022/09/16 09:05:16;;;;;;;3.92;1.83;;;;;;;30.62;46.90;99414.75;5085052;28;20861;-75
2022/09/16 09:07:53;;;;;;;3.15;1.80;;;;;;;30.42;46.11;99402.06;5070585;28;20622;-75
2022/09/16 09:10:29;;;;;;;4.65;1.58;;;;;;;30.45;46.04;99404.50;5070164;28;20279;-75
2022/09/16 09:13:04;;;;;;;6.30;1.73;;;;;;;30.48;45.57;99409.63;5051833;28;20210;-75
2022/09/16 09:15:40;;;;;;;5.38;1.80;;;;;;;30.36;45.15;99418.53;5070424;28;20213;-75
2022/09/16 09:18:33;;;;;;;7.05;1.90;;;;;;;30.53;45.17;99410.13;5070545;28;20226;-75
2022/09/16 09:21:14;;;;;;;4.70;1.70;;;;;;;30.83;44.78;99413.06;5070240;28;20206;-74
2022/09/16 09:23:55;;;;;;;4.72;1.45;;;;;;;30.91;45.02;99415.13;5070294;28;20214;-74
2022/09/16 09:26:27;;;;;;;5.85;1.70;;;;;;;30.95;44.49;99412.09;5070588;28;20650;-74
2022/09/16 09:29:14;;;;;;;7.45;1.48;;;;;;;30.82;44.12;99422.06;5070308;28;20209;-74
2022/09/16 09:31:53;;;;;;;4.43;1.73;;;;;;;30.96;43.98;99416.47;5070194;28;20226;-74
2022/09/16 09:34:32;;;;;;;6.68;2.20;;;;;;;31.08;43.49;99416.50;5042531;28;20206;-74
2022/09/16 09:37:13;;;;;;;7.85;1.70;;;;;;;31.24;44.19;99412.47;5070042;28;20263;-74
2022/09/16 09:39:52;;;;;;;8.82;1.80;;;;;;;31.37;42.78;99409.63;5069306;28;20218;-75
2022/09/16 09:42:22;;;;;;;5.80;1.85;;;;;;;31.09;43.52;99397.63;5074045;28;20205;-75
2022/09/16 09:44:55;;;;;;;11.35;2.05;;;;;;;31.21;43.56;99418.09;5065426;28;20234;-74
2022/09/16 09:47:27;;;;;;;6.38;2.17;;;;;;;31.49;43.32;99411.34;5018767;28;20218;-72
2022/09/16 09:49:58;;;;;;;5.00;2.25;;;;;;;31.33;42.80;99394.78;5053976;28;20206;-73
2022/09/16 09:52:31;;;;;;;3.20;1.60;;;;;;;31.62;42.40;99420.09;5053826;28;20226;-73
2022/09/16 09:55:13;;;;;;;10.85;2.20;;;;;;;31.82;42.29;99423.81;5058283;28;20221;-74
2022/09/16 09:57:45;;;;;;;9.63;1.73;;;;;;;31.73;41.96;99408.50;5038626;28;20209;-73
2022/09/16 10:00:16;;;;;;;6.57;2.03;;;;;;;32.12;41.62;99404.31;5073846;28;20190;-74
2022/09/16 10:02:46;;;;;;;8.10;1.88;;;;;;;32.56;41.36;99413.97;5073580;28;20697;-74
2022/09/16 10:05:21;;;;;;;4.30;1.80;;;;;;;32.48;40.86;99397.66;5073602;28;20198;-74
2022/09/16 10:07:49;;;;;;;8.77;1.67;;;;;;;32.51;40.28;99416.19;5073604;28;20233;-73
2022/09/16 10:10:21;;;;;;;8.52;2.10;;;;;;;32.58;40.70;99402.09;5073542;28;20275;-74
2022/09/16 10:12:48;;;;;;;8.20;2.13;;;;;;;33.17;39.89;99402.28;5073530;28;20221;-74
2022/09/16 10:15:27;;;;;;;8.98;1.80;;;;;;;33.45;38.87;99408.72;5073359;28;20701;-74
2022/09/16 10:17:58;;;;;;;4.72;1.58;;;;;;;33.26;39.00;99408.66;5073484;28;20692;-74
2022/09/16 10:20:28;;;;;;;5.63;1.85;;;;;;;32.98;39.33;99415.63;5073399;28;20211;-74
2022/09/16 10:23:02;;;;;;;4.60;2.05;;;;;;;33.09;39.11;99374.38;5073331;28;20202;-74
2022/09/16 10:25:31;;;;;;;9.10;2.03;;;;;;;33.17;38.91;99383.47;5073131;28;20694;-73
2022/09/16 10:28:00;;;;;;;5.05;2.30;;;;;;;33.43;38.33;99382.97;5073479;28;20202;-73
2022/09/16 10:30:28;;;;;;;7.90;2.22;;;;;;;33.85;38.26;99390.66;5073248;28;20218;-73
2022/09/16 10:33:00;;;;;;;5.93;1.90;;;;;;;34.00;37.84;99398.34;5073186;28;20225;-72
2022/09/16 10:35:29;;;;;;;10.10;2.35;;;;;;;33.59;37.69;99405.66;5073494;28;20221;-73
2022/09/16 10:37:57;;;;;;;9.15;2.33;;;;;;;33.17;37.82;99413.06;5073025;28;20198;-73
2022/09/16 10:40:25;;;;;;;4.38;2.20;;;;;;;33.05;38.13;99394.44;5037763;28;20213;-72
2022/09/16 10:42:54;;;;;;;9.75;3.13;;;;;;;33.18;38.12;99411.19;5073153;28;20202;-73
2022/09/16 10:45:27;;;;;;;7.03;2.20;;;;;;;33.16;38.42;99402.41;5073261;28;20610;-73
2022/09/16 10:47:59;;;;;;;6.60;3.55;;;;;;;32.86;38.78;99409.47;5064758;28;20291;-73
2022/09/16 10:50:26;;;;;;;11.63;3.08;;;;;;;32.93;38.61;99369.50;5041017;28;20222;-74
2022/09/16 10:52:53;;;;;;;12.88;3.00;;;;;;;33.04;38.63;99403.47;5050264;28;20203;-73
2022/09/16 10:55:24;;;;;;;8.07;2.55;;;;;;;33.20;38.03;99393.09;5049327;28;20202;-73
2022/09/16 10:57:51;;;;;;;9.27;3.60;;;;;;;33.04;38.07;99381.97;5051987;28;20205;-73
2022/09/16 11:00:20;;;;;;;9.50;4.65;;;;;;;32.75;38.19;99371.97;5051151;28;20203;-74
2022/09/16 11:03:27;;;;;;;12.32;4.03;;;;;;;33.05;38.55;99378.31;5033672;28;20199;-73
2022/09/16 11:06:05;;;;;;;7.82;2.05;;;;;;;32.45;38.78;99380.00;5050696;28;20209;-75
2022/09/16 11:08:53;;;;;;;4.43;2.30;;;;;;;32.43;39.28;99371.19;5052241;28;20194;-74
2022/09/16 11:11:35;;;;;;;9.65;2.25;;;;;;;32.71;38.89;99356.28;5043689;28;20249;-72
2022/09/16 11:14:12;;;;;;;10.77;2.33;;;;;;;32.79;38.70;99357.28;5051125;28;20202;-71
2022/09/16 11:16:53;;;;;;;6.13;2.00;;;;;;;32.93;38.91;99354.22;5049071;28;20199;-70
2022/09/16 11:19:30;;;;;;;4.88;1.95;;;;;;;32.66;38.95;99348.63;5050610;28;20215;-71
2022/09/16 11:22:09;;;;;;;6.03;2.05;;;;;;;32.65;38.70;99363.03;5031980;28;20207;-71
2022/09/16 11:24:51;;;;;;;4.32;2.10;;;;;;;32.86;38.99;99369.19;5032093;28;20269;-71
2022/09/16 11:27:30;;;;;;;6.75;2.38;;;;;;;32.91;38.23;99356.22;5046248;28;20344;-71
2022/09/16 11:30:11;;;;;;;6.00;2.30;;;;;;;32.87;38.76;99370.91;5032116;28;20302;-71
2022/09/16 11:32:58;;;;;;;9.30;2.50;;;;;;;33.05;38.89;99371.09;5031971;28;20206;-71
2022/09/16 11:35:40;;;;;;;8.65;2.17;;;;;;;33.04;39.49;99365.84;4989651;28;20213;-73
2022/09/16 11:38:16;;;;;;;5.30;1.98;;;;;;;33.42;39.28;99370.53;4989925;28;20208;-73
2022/09/16 11:40:47;;;;;;;6.28;2.25;;;;;;;33.52;38.76;99356.09;4989827;28;20295;-72
2022/09/16 11:43:46;;;;;;;7.75;1.98;;;;;;;33.11;39.52;99343.72;4989608;28;20369;-72
2022/09/16 11:46:22;;;;;;;5.75;2.13;;;;;;;33.01;39.11;99360.75;4988711;28;20229;-72
2022/09/16 11:49:03;;;;;;;7.88;2.00;;;;;;;33.04;39.42;99355.97;4989892;28;20204;-72